sensor_id;sensor_type;location;lat;lon;timestamp;P1;durP1;ratioP1;P2;durP2;ratioP2
9115;SDS011;4593;53.652;10.168;2023-05-07T00:01:20;8.63;;;6.00;;
9115;SDS011;4593;53.652;10.168;2023-05-07T00:03:46;8.37;;;5.60;;
9115;SDS011;4593;53.652;10.168;2023-05-07T00:06:12;10.07;;;5.77;;
9115;SDS011;4593;53.652;10.168;2023-05-07T00:08:38;9.10;;;6.03;;
9115;SDS011;4593;53.652;10.168;2023-05-07T00:11:03;11.57;;;6.93;;
9115;SDS011;4593;53.652;10.168;2023-05-07T00:13:29;8.73;;;5.60;;
9115;SDS011;4593;53.652;10.168;2023-05-07T00:16:00;6.73;;;5.00;;
9115;SDS011;4593;53.652;10.168;2023-05-07T00:18:28;9.93;;;5.63;;
9115;SDS011;4593;53.652;10.168;2023-05-07T00:20:54;8.20;;;5.47;;
9115;SDS011;4593;53.652;10.168;2023-05-07T00:23:20;11.03;;;6.10;;
9115;SDS011;4593;53.652;10.168;2023-05-07T00:25:45;9.67;;;6.33;;
9115;SDS011;4593;53.652;10.168;2023-05-07T00:28:11;8.67;;;5.83;;
9115;SDS011;4593;53.652;10.168;2023-05-07T00:30:36;8.57;;;5.87;;
9115;SDS011;4593;53.652;10.168;2023-05-07T00:33:02;9.37;;;6.43;;
9115;SDS011;4593;53.652;10.168;2023-05-07T00:35:28;9.10;;;6.00;;
9115;SDS011;4593;53.652;10.168;2023-05-07T00:37:54;11.07;;;7.03;;
9115;SDS011;4593;53.652;10.168;2023-05-07T00:40:20;9.27;;;5.73;;
9115;SDS011;4593;53.652;10.168;2023-05-07T00:42:46;9.50;;;5.63;;
9115;SDS011;4593;53.652;10.168;2023-05-07T00:45:14;5.83;;;4.80;;
9115;SDS011;4593;53.652;10.168;2023-05-07T00:47:40;7.80;;;5.87;;
9115;SDS011;4593;53.652;10.168;2023-05-07T00:50:06;8.57;;;6.20;;
9115;SDS011;4593;53.652;10.168;2023-05-07T00:52:33;9.37;;;6.70;;
9115;SDS011;4593;53.652;10.168;2023-05-07T00:55:00;10.13;;;6.70;;
9115;SDS011;4593;53.652;10.168;2023-05-07T00:57:32;8.27;;;5.73;;
9115;SDS011;4593;53.652;10.168;2023-05-07T01:00:01;8.20;;;5.97;;
9115;SDS011;4593;53.652;10.168;2023-05-07T01:02:29;9.80;;;5.83;;
9115;SDS011;4593;53.652;10.168;2023-05-07T01:04:54;9.83;;;6.90;;
9115;SDS011;4593;53.652;10.168;2023-05-07T01:07:21;10.23;;;6.63;;
9115;SDS011;4593;53.652;10.168;2023-05-07T01:09:48;11.37;;;5.80;;
9115;SDS011;4593;53.652;10.168;2023-05-07T01:12:13;7.23;;;5.63;;
9115;SDS011;4593;53.652;10.168;2023-05-07T01:14:40;10.23;;;6.43;;
9115;SDS011;4593;53.652;10.168;2023-05-07T01:17:06;10.97;;;5.90;;
9115;SDS011;4593;53.652;10.168;2023-05-07T01:19:33;9.43;;;5.70;;
9115;SDS011;4593;53.652;10.168;2023-05-07T01:22:07;7.57;;;5.17;;
9115;SDS011;4593;53.652;10.168;2023-05-07T01:24:36;6.80;;;5.07;;
9115;SDS011;4593;53.652;10.168;2023-05-07T01:27:02;7.87;;;5.50;;
9115;SDS011;4593;53.652;10.168;2023-05-07T01:29:28;7.87;;;5.80;;
9115;SDS011;4593;53.652;10.168;2023-05-07T01:31:56;8.60;;;5.53;;
9115;SDS011;4593;53.652;10.168;2023-05-07T01:34:24;9.43;;;6.17;;
9115;SDS011;4593;53.652;10.168;2023-05-07T01:36:52;8.63;;;6.00;;
9115;SDS011;4593;53.652;10.168;2023-05-07T01:39:21;10.40;;;6.30;;
9115;SDS011;4593;53.652;10.168;2023-05-07T01:41:49;7.23;;;5.27;;
9115;SDS011;4593;53.652;10.168;2023-05-07T01:44:15;9.37;;;5.23;;
9115;SDS011;4593;53.652;10.168;2023-05-07T01:46:43;9.17;;;5.67;;
9115;SDS011;4593;53.652;10.168;2023-05-07T01:49:09;9.10;;;5.07;;
9115;SDS011;4593;53.652;10.168;2023-05-07T01:51:34;8.80;;;5.83;;
9115;SDS011;4593;53.652;10.168;2023-05-07T01:54:01;7.53;;;5.50;;
9115;SDS011;4593;53.652;10.168;2023-05-07T01:56:26;9.07;;;5.93;;
9115;SDS011;4593;53.652;10.168;2023-05-07T01:58:52;7.80;;;6.03;;
9115;SDS011;4593;53.652;10.168;2023-05-07T02:01:18;8.33;;;5.43;;
9115;SDS011;4593;53.652;10.168;2023-05-07T02:03:43;10.30;;;6.30;;
9115;SDS011;4593;53.652;10.168;2023-05-07T02:06:09;6.93;;;5.70;;
9115;SDS011;4593;53.652;10.168;2023-05-07T02:08:35;8.17;;;5.03;;
9115;SDS011;4593;53.652;10.168;2023-05-07T02:11:01;7.73;;;5.53;;
9115;SDS011;4593;53.652;10.168;2023-05-07T02:13:32;7.20;;;5.10;;
9115;SDS011;4593;53.652;10.168;2023-05-07T02:15:58;6.70;;;5.57;;
9115;SDS011;4593;53.652;10.168;2023-05-07T02:18:24;8.33;;;6.10;;
9115;SDS011;4593;53.652;10.168;2023-05-07T02:20:49;7.93;;;5.47;;
9115;SDS011;4593;53.652;10.168;2023-05-07T02:23:15;10.60;;;6.47;;
9115;SDS011;4593;53.652;10.168;2023-05-07T02:25:40;8.20;;;6.30;;
9115;SDS011;4593;53.652;10.168;2023-05-07T02:28:06;8.73;;;5.97;;
9115;SDS011;4593;53.652;10.168;2023-05-07T02:30:32;10.27;;;6.63;;
9115;SDS011;4593;53.652;10.168;2023-05-07T02:32:58;8.03;;;6.30;;
9115;SDS011;4593;53.652;10.168;2023-05-07T02:35:24;6.50;;;5.20;;
9115;SDS011;4593;53.652;10.168;2023-05-07T02:37:50;7.80;;;6.13;;
9115;SDS011;4593;53.652;10.168;2023-05-07T02:40:15;9.10;;;6.30;;
9115;SDS011;4593;53.652;10.168;2023-05-07T02:42:41;9.43;;;5.97;;
9115;SDS011;4593;53.652;10.168;2023-05-07T02:45:07;10.53;;;6.27;;
9115;SDS011;4593;53.652;10.168;2023-05-07T02:47:33;10.23;;;6.83;;
9115;SDS011;4593;53.652;10.168;2023-05-07T02:49:59;11.30;;;6.57;;
9115;SDS011;4593;53.652;10.168;2023-05-07T02:52:24;9.30;;;6.97;;
9115;SDS011;4593;53.652;10.168;2023-05-07T02:54:50;12.10;;;6.80;;
9115;SDS011;4593;53.652;10.168;2023-05-07T02:57:16;11.03;;;7.10;;
9115;SDS011;4593;53.652;10.168;2023-05-07T02:59:41;9.23;;;6.13;;
9115;SDS011;4593;53.652;10.168;2023-05-07T03:02:07;11.30;;;6.97;;
9115;SDS011;4593;53.652;10.168;2023-05-07T03:04:33;9.53;;;6.20;;
9115;SDS011;4593;53.652;10.168;2023-05-07T03:06:58;10.93;;;6.80;;
9115;SDS011;4593;53.652;10.168;2023-05-07T03:09:24;7.77;;;5.90;;
9115;SDS011;4593;53.652;10.168;2023-05-07T03:11:50;10.10;;;6.53;;
9115;SDS011;4593;53.652;10.168;2023-05-07T03:14:16;9.27;;;6.47;;
9115;SDS011;4593;53.652;10.168;2023-05-07T03:16:42;11.67;;;6.30;;
9115;SDS011;4593;53.652;10.168;2023-05-07T03:19:07;11.77;;;6.43;;
9115;SDS011;4593;53.652;10.168;2023-05-07T03:21:33;7.63;;;5.87;;
9115;SDS011;4593;53.652;10.168;2023-05-07T03:23:59;8.97;;;6.10;;
9115;SDS011;4593;53.652;10.168;2023-05-07T03:26:25;12.20;;;6.27;;
9115;SDS011;4593;53.652;10.168;2023-05-07T03:28:51;8.00;;;5.73;;
9115;SDS011;4593;53.652;10.168;2023-05-07T03:31:17;8.30;;;6.03;;
9115;SDS011;4593;53.652;10.168;2023-05-07T03:33:53;8.57;;;5.83;;
9115;SDS011;4593;53.652;10.168;2023-05-07T03:36:19;8.40;;;6.23;;
9115;SDS011;4593;53.652;10.168;2023-05-07T03:38:46;8.10;;;6.17;;
9115;SDS011;4593;53.652;10.168;2023-05-07T03:41:12;8.07;;;5.97;;
9115;SDS011;4593;53.652;10.168;2023-05-07T03:43:37;7.73;;;5.70;;
9115;SDS011;4593;53.652;10.168;2023-05-07T03:46:03;8.20;;;5.93;;
9115;SDS011;4593;53.652;10.168;2023-05-07T03:48:29;8.80;;;5.63;;
9115;SDS011;4593;53.652;10.168;2023-05-07T03:50:55;8.37;;;5.60;;
9115;SDS011;4593;53.652;10.168;2023-05-07T03:53:22;8.50;;;5.53;;
9115;SDS011;4593;53.652;10.168;2023-05-07T03:55:48;7.27;;;4.83;;
9115;SDS011;4593;53.652;10.168;2023-05-07T03:58:14;7.43;;;5.40;;
9115;SDS011;4593;53.652;10.168;2023-05-07T04:00:40;5.97;;;5.00;;
9115;SDS011;4593;53.652;10.168;2023-05-07T04:03:06;7.33;;;5.50;;
9115;SDS011;4593;53.652;10.168;2023-05-07T04:05:32;8.13;;;5.63;;
9115;SDS011;4593;53.652;10.168;2023-05-07T04:07:58;6.70;;;5.67;;
9115;SDS011;4593;53.652;10.168;2023-05-07T04:10:24;8.57;;;6.17;;
9115;SDS011;4593;53.652;10.168;2023-05-07T04:12:50;8.17;;;5.17;;
9115;SDS011;4593;53.652;10.168;2023-05-07T04:15:16;9.97;;;5.83;;
9115;SDS011;4593;53.652;10.168;2023-05-07T04:17:42;9.63;;;5.40;;
9115;SDS011;4593;53.652;10.168;2023-05-07T04:20:14;8.63;;;5.53;;
9115;SDS011;4593;53.652;10.168;2023-05-07T04:22:41;11.83;;;6.40;;
9115;SDS011;4593;53.652;10.168;2023-05-07T04:25:07;8.10;;;5.27;;
9115;SDS011;4593;53.652;10.168;2023-05-07T04:27:36;8.50;;;5.30;;
9115;SDS011;4593;53.652;10.168;2023-05-07T04:30:02;10.77;;;5.63;;
9115;SDS011;4593;53.652;10.168;2023-05-07T04:32:29;7.40;;;5.30;;
9115;SDS011;4593;53.652;10.168;2023-05-07T04:34:55;8.70;;;5.13;;
9115;SDS011;4593;53.652;10.168;2023-05-07T04:37:21;8.60;;;5.40;;
9115;SDS011;4593;53.652;10.168;2023-05-07T04:39:47;6.77;;;5.13;;
9115;SDS011;4593;53.652;10.168;2023-05-07T04:42:16;7.53;;;4.60;;
9115;SDS011;4593;53.652;10.168;2023-05-07T04:44:43;7.43;;;4.87;;
9115;SDS011;4593;53.652;10.168;2023-05-07T04:47:10;7.57;;;5.53;;
9115;SDS011;4593;53.652;10.168;2023-05-07T04:49:36;8.83;;;5.60;;
9115;SDS011;4593;53.652;10.168;2023-05-07T04:52:02;8.07;;;5.63;;
9115;SDS011;4593;53.652;10.168;2023-05-07T04:54:28;4.97;;;4.07;;
9115;SDS011;4593;53.652;10.168;2023-05-07T04:56:54;7.00;;;4.97;;
9115;SDS011;4593;53.652;10.168;2023-05-07T04:59:20;9.80;;;5.83;;
9115;SDS011;4593;53.652;10.168;2023-05-07T05:01:46;7.67;;;4.83;;
9115;SDS011;4593;53.652;10.168;2023-05-07T05:04:11;7.00;;;5.03;;
9115;SDS011;4593;53.652;10.168;2023-05-07T05:06:38;5.83;;;4.50;;
9115;SDS011;4593;53.652;10.168;2023-05-07T05:09:03;8.57;;;4.77;;
9115;SDS011;4593;53.652;10.168;2023-05-07T05:11:30;8.53;;;4.97;;
9115;SDS011;4593;53.652;10.168;2023-05-07T05:13:56;6.00;;;4.60;;
9115;SDS011;4593;53.652;10.168;2023-05-07T05:16:21;6.87;;;4.30;;
9115;SDS011;4593;53.652;10.168;2023-05-07T05:18:47;5.27;;;4.50;;
9115;SDS011;4593;53.652;10.168;2023-05-07T05:21:13;6.33;;;4.97;;
9115;SDS011;4593;53.652;10.168;2023-05-07T05:23:39;5.53;;;4.57;;
9115;SDS011;4593;53.652;10.168;2023-05-07T05:26:04;7.30;;;4.93;;
9115;SDS011;4593;53.652;10.168;2023-05-07T05:28:30;5.80;;;4.80;;
9115;SDS011;4593;53.652;10.168;2023-05-07T05:30:55;9.30;;;5.13;;
9115;SDS011;4593;53.652;10.168;2023-05-07T05:33:21;8.40;;;5.13;;
9115;SDS011;4593;53.652;10.168;2023-05-07T05:35:47;8.40;;;5.50;;
9115;SDS011;4593;53.652;10.168;2023-05-07T05:38:13;6.27;;;5.03;;
9115;SDS011;4593;53.652;10.168;2023-05-07T05:40:38;10.60;;;5.53;;
9115;SDS011;4593;53.652;10.168;2023-05-07T05:43:04;6.87;;;4.90;;
9115;SDS011;4593;53.652;10.168;2023-05-07T05:45:30;6.00;;;4.80;;
9115;SDS011;4593;53.652;10.168;2023-05-07T05:47:56;9.63;;;5.33;;
9115;SDS011;4593;53.652;10.168;2023-05-07T05:50:22;6.30;;;4.80;;
9115;SDS011;4593;53.652;10.168;2023-05-07T05:52:48;5.77;;;4.47;;
9115;SDS011;4593;53.652;10.168;2023-05-07T05:55:14;6.23;;;4.80;;
9115;SDS011;4593;53.652;10.168;2023-05-07T05:57:39;7.43;;;4.93;;
9115;SDS011;4593;53.652;10.168;2023-05-07T06:00:05;7.23;;;5.00;;
9115;SDS011;4593;53.652;10.168;2023-05-07T06:02:32;8.20;;;5.30;;
9115;SDS011;4593;53.652;10.168;2023-05-07T06:04:58;7.70;;;4.93;;
9115;SDS011;4593;53.652;10.168;2023-05-07T06:07:24;6.43;;;4.47;;
9115;SDS011;4593;53.652;10.168;2023-05-07T06:09:50;7.93;;;5.23;;
9115;SDS011;4593;53.652;10.168;2023-05-07T06:12:15;6.13;;;4.63;;
9115;SDS011;4593;53.652;10.168;2023-05-07T06:14:42;6.93;;;4.33;;
9115;SDS011;4593;53.652;10.168;2023-05-07T06:17:08;6.57;;;4.77;;
9115;SDS011;4593;53.652;10.168;2023-05-07T06:19:34;5.17;;;4.37;;
9115;SDS011;4593;53.652;10.168;2023-05-07T06:22:00;6.17;;;4.53;;
9115;SDS011;4593;53.652;10.168;2023-05-07T06:24:26;7.17;;;4.60;;
9115;SDS011;4593;53.652;10.168;2023-05-07T06:26:52;6.57;;;4.17;;
9115;SDS011;4593;53.652;10.168;2023-05-07T06:29:18;6.70;;;4.87;;
9115;SDS011;4593;53.652;10.168;2023-05-07T06:31:43;6.93;;;4.40;;
9115;SDS011;4593;53.652;10.168;2023-05-07T06:34:09;9.73;;;4.77;;
9115;SDS011;4593;53.652;10.168;2023-05-07T06:36:35;6.77;;;5.00;;
9115;SDS011;4593;53.652;10.168;2023-05-07T06:39:01;8.20;;;5.30;;
9115;SDS011;4593;53.652;10.168;2023-05-07T06:41:26;6.33;;;4.37;;
9115;SDS011;4593;53.652;10.168;2023-05-07T06:43:52;5.53;;;4.27;;
9115;SDS011;4593;53.652;10.168;2023-05-07T06:46:18;8.87;;;4.60;;
9115;SDS011;4593;53.652;10.168;2023-05-07T06:48:43;6.03;;;4.57;;
9115;SDS011;4593;53.652;10.168;2023-05-07T06:51:09;7.10;;;4.57;;
9115;SDS011;4593;53.652;10.168;2023-05-07T06:53:35;5.53;;;4.27;;
9115;SDS011;4593;53.652;10.168;2023-05-07T06:56:00;6.03;;;4.50;;
9115;SDS011;4593;53.652;10.168;2023-05-07T06:58:26;6.17;;;4.60;;
9115;SDS011;4593;53.652;10.168;2023-05-07T07:00:52;5.77;;;3.93;;
9115;SDS011;4593;53.652;10.168;2023-05-07T07:03:17;5.33;;;4.43;;
9115;SDS011;4593;53.652;10.168;2023-05-07T07:05:43;5.70;;;4.30;;
9115;SDS011;4593;53.652;10.168;2023-05-07T07:08:09;4.77;;;3.97;;
9115;SDS011;4593;53.652;10.168;2023-05-07T07:10:35;7.50;;;4.50;;
9115;SDS011;4593;53.652;10.168;2023-05-07T07:13:01;6.50;;;4.40;;
9115;SDS011;4593;53.652;10.168;2023-05-07T07:15:26;9.83;;;4.27;;
9115;SDS011;4593;53.652;10.168;2023-05-07T07:17:52;4.33;;;3.93;;
9115;SDS011;4593;53.652;10.168;2023-05-07T07:20:17;6.90;;;4.70;;
9115;SDS011;4593;53.652;10.168;2023-05-07T07:22:43;5.73;;;4.27;;
9115;SDS011;4593;53.652;10.168;2023-05-07T07:25:09;5.60;;;4.07;;
9115;SDS011;4593;53.652;10.168;2023-05-07T07:27:36;6.57;;;4.13;;
9115;SDS011;4593;53.652;10.168;2023-05-07T07:30:01;5.23;;;4.43;;
9115;SDS011;4593;53.652;10.168;2023-05-07T07:32:27;4.53;;;4.13;;
9115;SDS011;4593;53.652;10.168;2023-05-07T07:34:53;5.73;;;4.43;;
9115;SDS011;4593;53.652;10.168;2023-05-07T07:37:19;5.13;;;4.00;;
9115;SDS011;4593;53.652;10.168;2023-05-07T07:39:44;7.13;;;4.17;;
9115;SDS011;4593;53.652;10.168;2023-05-07T07:42:10;5.83;;;4.50;;
9115;SDS011;4593;53.652;10.168;2023-05-07T07:44:36;5.57;;;4.40;;
9115;SDS011;4593;53.652;10.168;2023-05-07T07:47:01;4.90;;;3.87;;
9115;SDS011;4593;53.652;10.168;2023-05-07T07:49:27;4.60;;;3.97;;
9115;SDS011;4593;53.652;10.168;2023-05-07T07:51:53;4.43;;;3.90;;
9115;SDS011;4593;53.652;10.168;2023-05-07T07:54:18;4.80;;;4.00;;
9115;SDS011;4593;53.652;10.168;2023-05-07T07:56:44;4.87;;;3.73;;
9115;SDS011;4593;53.652;10.168;2023-05-07T07:59:09;4.33;;;3.77;;
9115;SDS011;4593;53.652;10.168;2023-05-07T08:01:35;5.47;;;4.23;;
9115;SDS011;4593;53.652;10.168;2023-05-07T08:04:01;5.47;;;4.00;;
9115;SDS011;4593;53.652;10.168;2023-05-07T08:06:28;7.13;;;4.20;;
9115;SDS011;4593;53.652;10.168;2023-05-07T08:08:54;4.13;;;3.60;;
9115;SDS011;4593;53.652;10.168;2023-05-07T08:11:20;3.93;;;3.53;;
9115;SDS011;4593;53.652;10.168;2023-05-07T08:13:46;5.57;;;4.20;;
9115;SDS011;4593;53.652;10.168;2023-05-07T08:16:12;5.00;;;3.70;;
9115;SDS011;4593;53.652;10.168;2023-05-07T08:18:38;4.87;;;3.60;;
9115;SDS011;4593;53.652;10.168;2023-05-07T08:21:04;8.27;;;3.60;;
9115;SDS011;4593;53.652;10.168;2023-05-07T08:23:30;4.67;;;3.77;;
9115;SDS011;4593;53.652;10.168;2023-05-07T08:25:55;7.03;;;3.63;;
9115;SDS011;4593;53.652;10.168;2023-05-07T08:28:21;4.50;;;3.47;;
9115;SDS011;4593;53.652;10.168;2023-05-07T08:30:47;4.70;;;3.63;;
9115;SDS011;4593;53.652;10.168;2023-05-07T08:33:12;4.63;;;3.73;;
9115;SDS011;4593;53.652;10.168;2023-05-07T08:35:38;4.03;;;3.53;;
9115;SDS011;4593;53.652;10.168;2023-05-07T08:38:04;5.73;;;3.97;;
9115;SDS011;4593;53.652;10.168;2023-05-07T08:40:29;5.20;;;3.80;;
9115;SDS011;4593;53.652;10.168;2023-05-07T08:43:02;5.33;;;3.90;;
9115;SDS011;4593;53.652;10.168;2023-05-07T08:45:30;4.90;;;3.83;;
9115;SDS011;4593;53.652;10.168;2023-05-07T08:47:58;4.83;;;3.90;;
9115;SDS011;4593;53.652;10.168;2023-05-07T08:50:27;4.07;;;3.67;;
9115;SDS011;4593;53.652;10.168;2023-05-07T08:52:53;3.77;;;3.43;;
9115;SDS011;4593;53.652;10.168;2023-05-07T08:55:18;4.93;;;3.83;;
9115;SDS011;4593;53.652;10.168;2023-05-07T08:57:45;5.63;;;4.27;;
9115;SDS011;4593;53.652;10.168;2023-05-07T09:00:12;6.17;;;4.43;;
9115;SDS011;4593;53.652;10.168;2023-05-07T09:02:38;5.77;;;4.60;;
9115;SDS011;4593;53.652;10.168;2023-05-07T09:05:04;4.63;;;3.73;;
9115;SDS011;4593;53.652;10.168;2023-05-07T09:07:30;6.47;;;4.00;;
9115;SDS011;4593;53.652;10.168;2023-05-07T09:09:56;3.40;;;3.10;;
9115;SDS011;4593;53.652;10.168;2023-05-07T09:12:22;5.13;;;4.03;;
9115;SDS011;4593;53.652;10.168;2023-05-07T09:14:48;7.80;;;3.73;;
9115;SDS011;4593;53.652;10.168;2023-05-07T09:17:17;4.47;;;3.90;;
9115;SDS011;4593;53.652;10.168;2023-05-07T09:19:44;4.23;;;3.57;;
9115;SDS011;4593;53.652;10.168;2023-05-07T09:22:10;4.13;;;3.27;;
9115;SDS011;4593;53.652;10.168;2023-05-07T09:24:37;4.17;;;3.60;;
9115;SDS011;4593;53.652;10.168;2023-05-07T09:27:04;3.80;;;3.50;;
9115;SDS011;4593;53.652;10.168;2023-05-07T09:29:30;4.37;;;3.53;;
9115;SDS011;4593;53.652;10.168;2023-05-07T09:32:03;3.90;;;3.50;;
9115;SDS011;4593;53.652;10.168;2023-05-07T09:34:32;6.57;;;4.30;;
9115;SDS011;4593;53.652;10.168;2023-05-07T09:36:58;4.17;;;3.77;;
9115;SDS011;4593;53.652;10.168;2023-05-07T09:39:40;4.23;;;3.53;;
9115;SDS011;4593;53.652;10.168;2023-05-07T09:42:11;4.63;;;4.07;;
9115;SDS011;4593;53.652;10.168;2023-05-07T09:44:38;4.93;;;3.60;;
9115;SDS011;4593;53.652;10.168;2023-05-07T09:47:07;5.30;;;3.47;;
9115;SDS011;4593;53.652;10.168;2023-05-07T09:49:34;4.30;;;3.30;;
9115;SDS011;4593;53.652;10.168;2023-05-07T09:52:04;5.60;;;3.90;;
9115;SDS011;4593;53.652;10.168;2023-05-07T09:54:35;7.20;;;3.90;;
9115;SDS011;4593;53.652;10.168;2023-05-07T09:57:03;4.03;;;3.63;;
9115;SDS011;4593;53.652;10.168;2023-05-07T09:59:31;5.70;;;3.53;;
9115;SDS011;4593;53.652;10.168;2023-05-07T10:01:58;4.77;;;3.53;;
9115;SDS011;4593;53.652;10.168;2023-05-07T10:04:27;4.10;;;3.70;;
9115;SDS011;4593;53.652;10.168;2023-05-07T10:06:54;4.47;;;3.87;;
9115;SDS011;4593;53.652;10.168;2023-05-07T10:09:20;4.37;;;3.90;;
9115;SDS011;4593;53.652;10.168;2023-05-07T10:11:48;3.90;;;3.50;;
9115;SDS011;4593;53.652;10.168;2023-05-07T10:14:15;4.73;;;4.10;;
9115;SDS011;4593;53.652;10.168;2023-05-07T10:16:41;7.20;;;3.53;;
9115;SDS011;4593;53.652;10.168;2023-05-07T10:19:09;7.10;;;4.07;;
9115;SDS011;4593;53.652;10.168;2023-05-07T10:21:35;3.70;;;3.40;;
9115;SDS011;4593;53.652;10.168;2023-05-07T10:24:06;8.23;;;3.60;;
9115;SDS011;4593;53.652;10.168;2023-05-07T10:26:39;3.77;;;3.20;;
9115;SDS011;4593;53.652;10.168;2023-05-07T10:34:32;5.90;;;3.80;;
9115;SDS011;4593;53.652;10.168;2023-05-07T10:37:02;4.47;;;3.23;;
9115;SDS011;4593;53.652;10.168;2023-05-07T10:39:29;3.47;;;3.17;;
9115;SDS011;4593;53.652;10.168;2023-05-07T10:41:55;3.80;;;3.40;;
9115;SDS011;4593;53.652;10.168;2023-05-07T10:44:30;3.00;;;2.73;;
9115;SDS011;4593;53.652;10.168;2023-05-07T10:52:12;3.80;;;3.30;;
9115;SDS011;4593;53.652;10.168;2023-05-07T10:54:43;5.27;;;3.70;;
9115;SDS011;4593;53.652;10.168;2023-05-07T10:59:54;4.13;;;3.23;;
9115;SDS011;4593;53.652;10.168;2023-05-07T11:02:20;6.60;;;3.03;;
9115;SDS011;4593;53.652;10.168;2023-05-07T11:04:45;4.33;;;3.03;;
9115;SDS011;4593;53.652;10.168;2023-05-07T11:07:59;4.23;;;2.77;;
9115;SDS011;4593;53.652;10.168;2023-05-07T11:16:18;4.93;;;2.67;;
9115;SDS011;4593;53.652;10.168;2023-05-07T11:18:48;3.13;;;2.80;;
9115;SDS011;4593;53.652;10.168;2023-05-07T11:24:03;3.20;;;2.90;;
9115;SDS011;4593;53.652;10.168;2023-05-07T11:26:31;3.37;;;3.07;;
9115;SDS011;4593;53.652;10.168;2023-05-07T11:29:10;3.17;;;2.87;;
9115;SDS011;4593;53.652;10.168;2023-05-07T11:31:36;3.10;;;2.90;;
9115;SDS011;4593;53.652;10.168;2023-05-07T11:34:03;3.67;;;3.20;;
9115;SDS011;4593;53.652;10.168;2023-05-07T11:36:30;4.00;;;2.90;;
9115;SDS011;4593;53.652;10.168;2023-05-07T11:38:57;9.87;;;3.30;;
9115;SDS011;4593;53.652;10.168;2023-05-07T11:41:32;3.03;;;2.73;;
9115;SDS011;4593;53.652;10.168;2023-05-07T11:44:00;3.23;;;2.90;;
9115;SDS011;4593;53.652;10.168;2023-05-07T11:46:26;2.70;;;2.50;;
9115;SDS011;4593;53.652;10.168;2023-05-07T11:48:52;3.80;;;2.60;;
9115;SDS011;4593;53.652;10.168;2023-05-07T11:51:19;2.77;;;2.50;;
9115;SDS011;4593;53.652;10.168;2023-05-07T11:53:49;2.80;;;2.50;;
9115;SDS011;4593;53.652;10.168;2023-05-07T11:56:16;3.00;;;2.70;;
9115;SDS011;4593;53.652;10.168;2023-05-07T11:58:43;2.80;;;2.60;;
9115;SDS011;4593;53.652;10.168;2023-05-07T12:01:10;4.93;;;2.53;;
9115;SDS011;4593;53.652;10.168;2023-05-07T12:03:37;3.60;;;2.40;;
9115;SDS011;4593;53.652;10.168;2023-05-07T12:06:09;4.67;;;2.53;;
9115;SDS011;4593;53.652;10.168;2023-05-07T12:08:36;4.70;;;2.77;;
9115;SDS011;4593;53.652;10.168;2023-05-07T12:11:03;2.70;;;2.50;;
9115;SDS011;4593;53.652;10.168;2023-05-07T12:13:31;2.77;;;2.40;;
9115;SDS011;4593;53.652;10.168;2023-05-07T12:15:57;3.23;;;2.90;;
9115;SDS011;4593;53.652;10.168;2023-05-07T12:18:23;2.50;;;2.30;;
9115;SDS011;4593;53.652;10.168;2023-05-07T12:20:50;3.90;;;2.80;;
9115;SDS011;4593;53.652;10.168;2023-05-07T12:23:16;2.87;;;2.60;;
9115;SDS011;4593;53.652;10.168;2023-05-07T12:25:42;3.53;;;2.33;;
9115;SDS011;4593;53.652;10.168;2023-05-07T12:28:15;3.07;;;2.77;;
9115;SDS011;4593;53.652;10.168;2023-05-07T12:30:42;2.10;;;2.00;;
9115;SDS011;4593;53.652;10.168;2023-05-07T12:33:10;2.60;;;2.40;;
9115;SDS011;4593;53.652;10.168;2023-05-07T12:35:40;2.87;;;2.60;;
9115;SDS011;4593;53.652;10.168;2023-05-07T12:38:14;4.10;;;2.40;;
9115;SDS011;4593;53.652;10.168;2023-05-07T12:40:43;3.47;;;2.40;;
9115;SDS011;4593;53.652;10.168;2023-05-07T12:45:42;2.57;;;2.37;;
9115;SDS011;4593;53.652;10.168;2023-05-07T12:48:09;3.17;;;2.47;;
9115;SDS011;4593;53.652;10.168;2023-05-07T12:50:36;2.77;;;2.37;;
9115;SDS011;4593;53.652;10.168;2023-05-07T12:53:04;2.60;;;2.40;;
9115;SDS011;4593;53.652;10.168;2023-05-07T12:55:32;2.70;;;2.50;;
9115;SDS011;4593;53.652;10.168;2023-05-07T13:00:55;2.83;;;2.63;;
9115;SDS011;4593;53.652;10.168;2023-05-07T13:03:36;3.03;;;2.43;;
9115;SDS011;4593;53.652;10.168;2023-05-07T13:08:30;4.93;;;2.40;;
9115;SDS011;4593;53.652;10.168;2023-05-07T13:10:57;2.77;;;2.50;;
9115;SDS011;4593;53.652;10.168;2023-05-07T13:13:25;2.50;;;2.30;;
9115;SDS011;4593;53.652;10.168;2023-05-07T13:15:51;3.30;;;2.10;;
9115;SDS011;4593;53.652;10.168;2023-05-07T13:18:17;2.50;;;2.30;;
9115;SDS011;4593;53.652;10.168;2023-05-07T13:20:43;2.40;;;2.20;;
9115;SDS011;4593;53.652;10.168;2023-05-07T13:23:08;3.30;;;2.50;;
9115;SDS011;4593;53.652;10.168;2023-05-07T13:25:34;3.90;;;2.47;;
9115;SDS011;4593;53.652;10.168;2023-05-07T13:28:00;3.67;;;2.40;;
9115;SDS011;4593;53.652;10.168;2023-05-07T13:30:25;3.43;;;2.53;;
9115;SDS011;4593;53.652;10.168;2023-05-07T13:32:53;3.07;;;2.40;;
9115;SDS011;4593;53.652;10.168;2023-05-07T13:35:20;2.53;;;2.20;;
9115;SDS011;4593;53.652;10.168;2023-05-07T13:37:46;2.70;;;2.50;;
9115;SDS011;4593;53.652;10.168;2023-05-07T13:40:14;2.40;;;2.20;;
9115;SDS011;4593;53.652;10.168;2023-05-07T13:42:40;2.70;;;2.10;;
9115;SDS011;4593;53.652;10.168;2023-05-07T13:45:06;2.73;;;2.50;;
9115;SDS011;4593;53.652;10.168;2023-05-07T13:47:33;2.30;;;2.10;;
9115;SDS011;4593;53.652;10.168;2023-05-07T13:49:59;2.87;;;2.33;;
9115;SDS011;4593;53.652;10.168;2023-05-07T13:52:25;2.40;;;2.20;;
9115;SDS011;4593;53.652;10.168;2023-05-07T13:54:51;2.80;;;2.23;;
9115;SDS011;4593;53.652;10.168;2023-05-07T13:57:17;2.40;;;2.20;;
9115;SDS011;4593;53.652;10.168;2023-05-07T13:59:43;2.60;;;2.40;;
9115;SDS011;4593;53.652;10.168;2023-05-07T14:02:09;2.50;;;2.10;;
9115;SDS011;4593;53.652;10.168;2023-05-07T14:04:35;2.40;;;2.20;;
9115;SDS011;4593;53.652;10.168;2023-05-07T14:07:02;2.50;;;2.30;;
9115;SDS011;4593;53.652;10.168;2023-05-07T14:09:28;2.50;;;2.30;;
9115;SDS011;4593;53.652;10.168;2023-05-07T14:11:54;2.50;;;2.30;;
9115;SDS011;4593;53.652;10.168;2023-05-07T14:14:19;3.90;;;2.27;;
9115;SDS011;4593;53.652;10.168;2023-05-07T14:16:45;2.40;;;2.20;;
9115;SDS011;4593;53.652;10.168;2023-05-07T14:19:11;2.47;;;2.13;;
9115;SDS011;4593;53.652;10.168;2023-05-07T14:21:37;2.70;;;2.27;;
9115;SDS011;4593;53.652;10.168;2023-05-07T14:24:03;2.23;;;2.10;;
9115;SDS011;4593;53.652;10.168;2023-05-07T14:26:29;2.50;;;2.30;;
9115;SDS011;4593;53.652;10.168;2023-05-07T14:28:55;2.40;;;2.20;;
9115;SDS011;4593;53.652;10.168;2023-05-07T14:31:23;4.30;;;2.37;;
9115;SDS011;4593;53.652;10.168;2023-05-07T14:33:49;2.40;;;2.20;;
9115;SDS011;4593;53.652;10.168;2023-05-07T14:36:16;2.60;;;2.40;;
9115;SDS011;4593;53.652;10.168;2023-05-07T14:38:42;2.53;;;2.20;;
9115;SDS011;4593;53.652;10.168;2023-05-07T14:41:08;2.53;;;2.20;;
9115;SDS011;4593;53.652;10.168;2023-05-07T14:43:34;2.70;;;2.33;;
9115;SDS011;4593;53.652;10.168;2023-05-07T14:45:59;2.37;;;2.17;;
9115;SDS011;4593;53.652;10.168;2023-05-07T14:48:25;2.60;;;2.40;;
9115;SDS011;4593;53.652;10.168;2023-05-07T14:50:50;2.83;;;2.50;;
9115;SDS011;4593;53.652;10.168;2023-05-07T14:53:16;2.47;;;2.27;;
9115;SDS011;4593;53.652;10.168;2023-05-07T14:55:42;2.60;;;2.30;;
9115;SDS011;4593;53.652;10.168;2023-05-07T14:58:08;2.43;;;2.23;;
9115;SDS011;4593;53.652;10.168;2023-05-07T15:00:35;6.13;;;3.10;;
9115;SDS011;4593;53.652;10.168;2023-05-07T15:03:04;3.87;;;3.10;;
9115;SDS011;4593;53.652;10.168;2023-05-07T15:05:32;2.40;;;2.20;;
9115;SDS011;4593;53.652;10.168;2023-05-07T15:07:58;2.27;;;2.07;;
9115;SDS011;4593;53.652;10.168;2023-05-07T15:10:24;2.50;;;2.30;;
9115;SDS011;4593;53.652;10.168;2023-05-07T15:12:49;2.80;;;2.30;;
9115;SDS011;4593;53.652;10.168;2023-05-07T15:15:15;2.73;;;2.50;;
9115;SDS011;4593;53.652;10.168;2023-05-07T15:17:41;2.53;;;2.33;;
9115;SDS011;4593;53.652;10.168;2023-05-07T15:20:07;3.07;;;2.40;;
9115;SDS011;4593;53.652;10.168;2023-05-07T15:22:33;2.50;;;2.30;;
9115;SDS011;4593;53.652;10.168;2023-05-07T15:25:01;2.40;;;2.20;;
9115;SDS011;4593;53.652;10.168;2023-05-07T15:27:26;2.50;;;2.23;;